sensor_id;sensor_type;location;lat;lon;timestamp;temperature;humidity
23237;DHT22;11787;52.018;8.570;2022-11-15T00:01:06;9.40;99.90
23237;DHT22;11787;52.018;8.570;2022-11-15T00:03:32;9.40;99.90
23237;DHT22;11787;52.018;8.570;2022-11-15T00:06:00;9.40;99.90
23237;DHT22;11787;52.018;8.570;2022-11-15T00:08:28;9.40;99.90
23237;DHT22;11787;52.018;8.570;2022-11-15T00:11:03;9.50;99.90
23237;DHT22;11787;52.018;8.570;2022-11-15T00:13:29;9.50;99.90
23237;DHT22;11787;52.018;8.570;2022-11-15T00:15:58;9.50;99.90
23237;DHT22;11787;52.018;8.570;2022-11-15T00:18:24;9.50;99.90
23237;DHT22;11787;52.018;8.570;2022-11-15T00:20:49;9.50;99.90
23237;DHT22;11787;52.018;8.570;2022-11-15T00:23:15;9.50;99.90
23237;DHT22;11787;52.018;8.570;2022-11-15T00:25:40;9.60;99.90
23237;DHT22;11787;52.018;8.570;2022-11-15T00:28:06;9.60;99.90
23237;DHT22;11787;52.018;8.570;2022-11-15T00:30:31;9.60;99.90
23237;DHT22;11787;52.018;8.570;2022-11-15T00:33:00;9.70;99.90
23237;DHT22;11787;52.018;8.570;2022-11-15T00:35:26;9.70;99.90
23237;DHT22;11787;52.018;8.570;2022-11-15T00:37:52;9.70;99.90
23237;DHT22;11787;52.018;8.570;2022-11-15T00:40:17;9.80;99.90
23237;DHT22;11787;52.018;8.570;2022-11-15T00:42:43;9.90;99.90
23237;DHT22;11787;52.018;8.570;2022-11-15T00:45:08;9.90;99.90
23237;DHT22;11787;52.018;8.570;2022-11-15T00:47:34;10.00;99.90
23237;DHT22;11787;52.018;8.570;2022-11-15T00:49:59;10.00;99.90
23237;DHT22;11787;52.018;8.570;2022-11-15T00:52:25;10.00;99.90
23237;DHT22;11787;52.018;8.570;2022-11-15T00:54:50;10.10;99.90
23237;DHT22;11787;52.018;8.570;2022-11-15T00:57:16;10.10;99.90
23237;DHT22;11787;52.018;8.570;2022-11-15T00:59:41;10.20;99.90
23237;DHT22;11787;52.018;8.570;2022-11-15T01:02:07;10.20;99.90
23237;DHT22;11787;52.018;8.570;2022-11-15T01:04:32;10.20;99.90
23237;DHT22;11787;52.018;8.570;2022-11-15T01:06:58;10.30;99.90
23237;DHT22;11787;52.018;8.570;2022-11-15T01:12:26;10.40;99.90
23237;DHT22;11787;52.018;8.570;2022-11-15T01:14:52;10.40;99.90
23237;DHT22;11787;52.018;8.570;2022-11-15T01:17:17;10.40;99.90
23237;DHT22;11787;52.018;8.570;2022-11-15T01:19:43;10.50;99.90
23237;DHT22;11787;52.018;8.570;2022-11-15T01:22:08;10.50;99.90
23237;DHT22;11787;52.018;8.570;2022-11-15T01:24:34;10.50;99.90
23237;DHT22;11787;52.018;8.570;2022-11-15T01:26:59;10.60;99.90
23237;DHT22;11787;52.018;8.570;2022-11-15T01:29:25;10.60;99.90
23237;DHT22;11787;52.018;8.570;2022-11-15T01:31:52;10.60;99.90
23237;DHT22;11787;52.018;8.570;2022-11-15T01:34:17;10.60;99.90
23237;DHT22;11787;52.018;8.570;2022-11-15T01:36:43;10.60;99.90
23237;DHT22;11787;52.018;8.570;2022-11-15T01:39:08;10.70;99.90
23237;DHT22;11787;52.018;8.570;2022-11-15T01:41:34;10.70;99.90
23237;DHT22;11787;52.018;8.570;2022-11-15T01:46:44;10.70;99.90
23237;DHT22;11787;52.018;8.570;2022-11-15T01:49:16;10.80;99.90
23237;DHT22;11787;52.018;8.570;2022-11-15T01:51:42;10.90;99.90
23237;DHT22;11787;52.018;8.570;2022-11-15T01:54:08;10.90;99.90
23237;DHT22;11787;52.018;8.570;2022-11-15T01:56:38;10.90;99.90
23237;DHT22;11787;52.018;8.570;2022-11-15T01:59:05;10.90;99.90
23237;DHT22;11787;52.018;8.570;2022-11-15T02:01:31;10.80;99.90
23237;DHT22;11787;52.018;8.570;2022-11-15T02:03:59;10.70;99.90
23237;DHT22;11787;52.018;8.570;2022-11-15T02:06:25;10.70;99.90
23237;DHT22;11787;52.018;8.570;2022-11-15T02:08:50;10.70;99.90
23237;DHT22;11787;52.018;8.570;2022-11-15T02:11:16;10.70;99.90
23237;DHT22;11787;52.018;8.570;2022-11-15T02:13:41;10.70;99.90
23237;DHT22;11787;52.018;8.570;2022-11-15T02:16:22;10.60;99.90
23237;DHT22;11787;52.018;8.570;2022-11-15T02:19:02;10.60;99.90
23237;DHT22;11787;52.018;8.570;2022-11-15T02:21:37;10.70;99.90
23237;DHT22;11787;52.018;8.570;2022-11-15T02:29:20;10.80;99.90
23237;DHT22;11787;52.018;8.570;2022-11-15T02:31:53;10.90;99.90
23237;DHT22;11787;52.018;8.570;2022-11-15T02:36:56;11.00;99.90
23237;DHT22;11787;52.018;8.570;2022-11-15T02:39:30;11.10;99.90
23237;DHT22;11787;52.018;8.570;2022-11-15T02:42:19;11.10;99.90
23237;DHT22;11787;52.018;8.570;2022-11-15T02:45:03;11.20;99.90
23237;DHT22;11787;52.018;8.570;2022-11-15T02:47:30;11.20;99.90
23237;DHT22;11787;52.018;8.570;2022-11-15T02:49:59;11.20;99.90
23237;DHT22;11787;52.018;8.570;2022-11-15T02:52:25;11.20;99.90
23237;DHT22;11787;52.018;8.570;2022-11-15T02:57:20;11.30;99.90
23237;DHT22;11787;52.018;8.570;2022-11-15T02:59:56;11.20;99.90
23237;DHT22;11787;52.018;8.570;2022-11-15T03:10:26;11.20;99.90
23237;DHT22;11787;52.018;8.570;2022-11-15T03:12:59;11.30;99.90
23237;DHT22;11787;52.018;8.570;2022-11-15T03:15:32;11.30;99.90
23237;DHT22;11787;52.018;8.570;2022-11-15T03:18:00;11.30;99.90
23237;DHT22;11787;52.018;8.570;2022-11-15T03:20:27;11.30;99.90
23237;DHT22;11787;52.018;8.570;2022-11-15T03:22:55;11.30;99.90
23237;DHT22;11787;52.018;8.570;2022-11-15T03:25:22;11.30;99.90
23237;DHT22;11787;52.018;8.570;2022-11-15T03:27:49;11.30;99.90
23237;DHT22;11787;52.018;8.570;2022-11-15T03:30:15;11.30;99.90
23237;DHT22;11787;52.018;8.570;2022-11-15T03:32:43;11.20;99.90
23237;DHT22;11787;52.018;8.570;2022-11-15T03:35:14;11.20;99.90
23237;DHT22;11787;52.018;8.570;2022-11-15T03:40:06;11.20;99.90
23237;DHT22;11787;52.018;8.570;2022-11-15T03:42:33;11.20;99.90
23237;DHT22;11787;52.018;8.570;2022-11-15T03:48:05;11.30;99.90
23237;DHT22;11787;52.018;8.570;2022-11-15T03:50:32;11.30;99.90
23237;DHT22;11787;52.018;8.570;2022-11-15T03:52:57;11.30;99.90
23237;DHT22;11787;52.018;8.570;2022-11-15T03:55:23;11.30;99.90
23237;DHT22;11787;52.018;8.570;2022-11-15T03:57:51;11.30;99.90
23237;DHT22;11787;52.018;8.570;2022-11-15T04:00:18;11.30;99.90
23237;DHT22;11787;52.018;8.570;2022-11-15T04:02:43;11.30;99.90
23237;DHT22;11787;52.018;8.570;2022-11-15T04:05:09;11.30;99.90
23237;DHT22;11787;52.018;8.570;2022-11-15T04:07:34;11.20;99.90
23237;DHT22;11787;52.018;8.570;2022-11-15T04:10:00;11.20;99.90
23237;DHT22;11787;52.018;8.570;2022-11-15T04:12:31;11.20;99.90
23237;DHT22;11787;52.018;8.570;2022-11-15T04:15:00;11.30;99.90
23237;DHT22;11787;52.018;8.570;2022-11-15T04:17:36;11.20;99.90
23237;DHT22;11787;52.018;8.570;2022-11-15T04:20:03;11.20;99.90
23237;DHT22;11787;52.018;8.570;2022-11-15T04:25:51;11.20;99.90
23237;DHT22;11787;52.018;8.570;2022-11-15T04:28:17;11.20;99.90
23237;DHT22;11787;52.018;8.570;2022-11-15T04:30:43;11.20;99.90
23237;DHT22;11787;52.018;8.570;2022-11-15T04:33:08;11.20;99.90
23237;DHT22;11787;52.018;8.570;2022-11-15T04:35:34;11.20;99.90
23237;DHT22;11787;52.018;8.570;2022-11-15T04:37:59;11.10;99.90
23237;DHT22;11787;52.018;8.570;2022-11-15T04:40:25;11.20;99.90
23237;DHT22;11787;52.018;8.570;2022-11-15T04:42:50;11.20;99.90
23237;DHT22;11787;52.018;8.570;2022-11-15T04:48:19;11.20;99.90
23237;DHT22;11787;52.018;8.570;2022-11-15T04:50:47;11.10;99.90
23237;DHT22;11787;52.018;8.570;2022-11-15T04:53:12;11.20;99.90
23237;DHT22;11787;52.018;8.570;2022-11-15T04:55:37;11.20;99.90
23237;DHT22;11787;52.018;8.570;2022-11-15T04:58:03;11.20;99.90
23237;DHT22;11787;52.018;8.570;2022-11-15T05:00:29;11.10;99.90
23237;DHT22;11787;52.018;8.570;2022-11-15T05:02:55;11.10;99.90
23237;DHT22;11787;52.018;8.570;2022-11-15T05:05:39;11.20;99.90
23237;DHT22;11787;52.018;8.570;2022-11-15T05:08:04;11.20;99.90
23237;DHT22;11787;52.018;8.570;2022-11-15T05:10:30;11.20;99.90
23237;DHT22;11787;52.018;8.570;2022-11-15T05:12:55;11.20;99.90
23237;DHT22;11787;52.018;8.570;2022-11-15T05:15:21;11.20;99.90
23237;DHT22;11787;52.018;8.570;2022-11-15T05:17:46;11.20;99.90
23237;DHT22;11787;52.018;8.570;2022-11-15T05:20:12;11.20;99.90
23237;DHT22;11787;52.018;8.570;2022-11-15T05:22:38;11.20;99.90
23237;DHT22;11787;52.018;8.570;2022-11-15T05:25:03;11.20;99.90
23237;DHT22;11787;52.018;8.570;2022-11-15T05:27:29;11.20;99.90
23237;DHT22;11787;52.018;8.570;2022-11-15T05:29:54;11.20;99.90
23237;DHT22;11787;52.018;8.570;2022-11-15T05:32:20;11.20;99.90
23237;DHT22;11787;52.018;8.570;2022-11-15T05:34:45;11.20;99.90
23237;DHT22;11787;52.018;8.570;2022-11-15T05:37:11;11.30;99.90
23237;DHT22;11787;52.018;8.570;2022-11-15T05:39:37;11.20;99.90
23237;DHT22;11787;52.018;8.570;2022-11-15T05:44:28;11.20;99.90
23237;DHT22;11787;52.018;8.570;2022-11-15T05:46:53;11.20;99.90
23237;DHT22;11787;52.018;8.570;2022-11-15T05:49:22;11.30;99.90
23237;DHT22;11787;52.018;8.570;2022-11-15T05:51:48;11.30;99.90
23237;DHT22;11787;52.018;8.570;2022-11-15T05:54:14;11.30;99.90
23237;DHT22;11787;52.018;8.570;2022-11-15T05:56:40;11.30;99.90
23237;DHT22;11787;52.018;8.570;2022-11-15T05:59:06;11.30;99.90
23237;DHT22;11787;52.018;8.570;2022-11-15T06:01:32;11.30;99.90
23237;DHT22;11787;52.018;8.570;2022-11-15T06:03:57;11.30;99.90
23237;DHT22;11787;52.018;8.570;2022-11-15T06:06:23;11.30;99.90
23237;DHT22;11787;52.018;8.570;2022-11-15T06:08:48;11.30;99.90
23237;DHT22;11787;52.018;8.570;2022-11-15T06:11:14;11.40;99.90
23237;DHT22;11787;52.018;8.570;2022-11-15T06:13:39;11.40;99.90
23237;DHT22;11787;52.018;8.570;2022-11-15T06:16:05;11.40;99.90
23237;DHT22;11787;52.018;8.570;2022-11-15T06:18:34;11.40;99.90
23237;DHT22;11787;52.018;8.570;2022-11-15T06:21:00;11.40;99.90
23237;DHT22;11787;52.018;8.570;2022-11-15T06:23:25;11.40;99.90
23237;DHT22;11787;52.018;8.570;2022-11-15T06:25:51;11.50;99.90
23237;DHT22;11787;52.018;8.570;2022-11-15T06:28:16;11.50;99.90
23237;DHT22;11787;52.018;8.570;2022-11-15T06:30:42;11.50;99.90
23237;DHT22;11787;52.018;8.570;2022-11-15T06:33:07;11.50;99.90
23237;DHT22;11787;52.018;8.570;2022-11-15T06:35:34;11.50;99.90
23237;DHT22;11787;52.018;8.570;2022-11-15T06:38:07;11.50;99.90
23237;DHT22;11787;52.018;8.570;2022-11-15T06:40:34;11.50;99.90
23237;DHT22;11787;52.018;8.570;2022-11-15T06:42:59;11.50;99.90
23237;DHT22;11787;52.018;8.570;2022-11-15T06:45:25;11.50;99.90
23237;DHT22;11787;52.018;8.570;2022-11-15T06:47:51;11.50;99.90
23237;DHT22;11787;52.018;8.570;2022-11-15T06:50:16;11.60;99.90
23237;DHT22;11787;52.018;8.570;2022-11-15T06:52:42;11.60;99.90
23237;DHT22;11787;52.018;8.570;2022-11-15T06:55:07;11.60;99.90
23237;DHT22;11787;52.018;8.570;2022-11-15T06:57:33;11.60;99.90
23237;DHT22;11787;52.018;8.570;2022-11-15T06:59:58;11.60;99.90
23237;DHT22;11787;52.018;8.570;2022-11-15T07:02:24;11.60;99.90
23237;DHT22;11787;52.018;8.570;2022-11-15T07:04:49;11.70;99.90
23237;DHT22;11787;52.018;8.570;2022-11-15T07:07:15;11.70;99.90
23237;DHT22;11787;52.018;8.570;2022-11-15T07:09:40;11.70;99.90
23237;DHT22;11787;52.018;8.570;2022-11-15T07:12:06;11.70;99.90
23237;DHT22;11787;52.018;8.570;2022-11-15T07:14:31;11.80;99.90
23237;DHT22;11787;52.018;8.570;2022-11-15T07:16:57;11.80;99.90
23237;DHT22;11787;52.018;8.570;2022-11-15T07:19:22;11.80;99.90
23237;DHT22;11787;52.018;8.570;2022-11-15T07:21:48;11.80;99.90
23237;DHT22;11787;52.018;8.570;2022-11-15T07:24:14;11.90;99.90
23237;DHT22;11787;52.018;8.570;2022-11-15T07:26:39;11.90;99.90
23237;DHT22;11787;52.018;8.570;2022-11-15T07:29:05;11.90;99.90
23237;DHT22;11787;52.018;8.570;2022-11-15T07:31:31;12.00;99.90
23237;DHT22;11787;52.018;8.570;2022-11-15T07:33:56;12.10;99.90
23237;DHT22;11787;52.018;8.570;2022-11-15T07:36:22;12.10;99.90
23237;DHT22;11787;52.018;8.570;2022-11-15T07:38:47;12.10;99.90
23237;DHT22;11787;52.018;8.570;2022-11-15T07:41:13;12.10;99.90
23237;DHT22;11787;52.018;8.570;2022-11-15T07:43:38;12.20;99.90
23237;DHT22;11787;52.018;8.570;2022-11-15T07:46:08;12.20;99.90
23237;DHT22;11787;52.018;8.570;2022-11-15T07:48:38;12.20;99.90
23237;DHT22;11787;52.018;8.570;2022-11-15T07:51:06;12.20;99.90
23237;DHT22;11787;52.018;8.570;2022-11-15T07:53:32;12.20;99.90
23237;DHT22;11787;52.018;8.570;2022-11-15T07:55:57;12.20;99.90
23237;DHT22;11787;52.018;8.570;2022-11-15T07:58:23;12.20;99.90
23237;DHT22;11787;52.018;8.570;2022-11-15T08:00:48;12.20;99.90
23237;DHT22;11787;52.018;8.570;2022-11-15T08:03:16;12.20;99.90
23237;DHT22;11787;52.018;8.570;2022-11-15T08:05:43;12.20;99.90
23237;DHT22;11787;52.018;8.570;2022-11-15T08:08:10;12.20;99.90
23237;DHT22;11787;52.018;8.570;2022-11-15T08:10:36;12.20;99.90
23237;DHT22;11787;52.018;8.570;2022-11-15T08:13:07;12.20;99.90
23237;DHT22;11787;52.018;8.570;2022-11-15T08:15:34;12.20;99.90
23237;DHT22;11787;52.018;8.570;2022-11-15T08:18:02;12.20;99.90
23237;DHT22;11787;52.018;8.570;2022-11-15T08:20:29;12.20;99.90
23237;DHT22;11787;52.018;8.570;2022-11-15T08:22:56;12.30;99.90
23237;DHT22;11787;52.018;8.570;2022-11-15T08:25:23;12.30;99.90
23237;DHT22;11787;52.018;8.570;2022-11-15T08:27:51;12.30;99.90
23237;DHT22;11787;52.018;8.570;2022-11-15T08:30:17;12.30;99.90
23237;DHT22;11787;52.018;8.570;2022-11-15T08:32:42;12.30;99.90
23237;DHT22;11787;52.018;8.570;2022-11-15T08:35:08;12.40;99.90
23237;DHT22;11787;52.018;8.570;2022-11-15T08:37:34;12.40;99.90
23237;DHT22;11787;52.018;8.570;2022-11-15T08:40:00;12.50;99.90
23237;DHT22;11787;52.018;8.570;2022-11-15T08:42:25;12.50;99.90
23237;DHT22;11787;52.018;8.570;2022-11-15T08:44:51;12.50;99.90
23237;DHT22;11787;52.018;8.570;2022-11-15T08:47:16;12.50;99.90
23237;DHT22;11787;52.018;8.570;2022-11-15T08:49:42;12.50;99.90
23237;DHT22;11787;52.018;8.570;2022-11-15T08:52:08;12.50;99.90
23237;DHT22;11787;52.018;8.570;2022-11-15T08:54:33;12.60;99.90
23237;DHT22;11787;52.018;8.570;2022-11-15T08:56:59;12.60;99.90
23237;DHT22;11787;52.018;8.570;2022-11-15T08:59:24;12.70;99.90
23237;DHT22;11787;52.018;8.570;2022-11-15T09:01:50;12.70;99.90
23237;DHT22;11787;52.018;8.570;2022-11-15T09:04:15;12.70;99.90
23237;DHT22;11787;52.018;8.570;2022-11-15T09:06:41;12.80;99.90
23237;DHT22;11787;52.018;8.570;2022-11-15T09:09:06;12.80;99.90
23237;DHT22;11787;52.018;8.570;2022-11-15T09:11:32;12.90;99.90
23237;DHT22;11787;52.018;8.570;2022-11-15T09:13:58;13.00;99.90
23237;DHT22;11787;52.018;8.570;2022-11-15T09:16:23;13.00;99.90
23237;DHT22;11787;52.018;8.570;2022-11-15T09:18:49;13.00;99.90
23237;DHT22;11787;52.018;8.570;2022-11-15T09:21:15;13.10;99.90
23237;DHT22;11787;52.018;8.570;2022-11-15T09:23:40;13.10;99.90
23237;DHT22;11787;52.018;8.570;2022-11-15T09:26:06;13.10;99.90
23237;DHT22;11787;52.018;8.570;2022-11-15T09:28:33;13.10;99.90
23237;DHT22;11787;52.018;8.570;2022-11-15T09:31:00;13.20;99.90
23237;DHT22;11787;52.018;8.570;2022-11-15T09:33:26;13.20;99.90
23237;DHT22;11787;52.018;8.570;2022-11-15T09:35:53;13.10;99.90
23237;DHT22;11787;52.018;8.570;2022-11-15T09:38:19;13.20;99.90
23237;DHT22;11787;52.018;8.570;2022-11-15T09:40:50;13.20;99.90
23237;DHT22;11787;52.018;8.570;2022-11-15T09:46:15;13.30;99.90
23237;DHT22;11787;52.018;8.570;2022-11-15T09:48:48;13.30;99.90
23237;DHT22;11787;52.018;8.570;2022-11-15T09:51:41;13.30;99.90
23237;DHT22;11787;52.018;8.570;2022-11-15T09:54:35;13.30;99.90
23237;DHT22;11787;52.018;8.570;2022-11-15T10:03:06;13.30;99.90
23237;DHT22;11787;52.018;8.570;2022-11-15T10:05:39;13.40;99.90
23237;DHT22;11787;52.018;8.570;2022-11-15T10:10:39;13.40;99.90
23237;DHT22;11787;52.018;8.570;2022-11-15T10:13:33;13.40;99.90
23237;DHT22;11787;52.018;8.570;2022-11-15T10:16:12;13.50;99.90
23237;DHT22;11787;52.018;8.570;2022-11-15T10:24:27;13.60;99.90
23237;DHT22;11787;52.018;8.570;2022-11-15T10:26:55;13.60;99.90
23237;DHT22;11787;52.018;8.570;2022-11-15T10:29:22;13.60;99.90
23237;DHT22;11787;52.018;8.570;2022-11-15T10:31:48;13.60;99.90
23237;DHT22;11787;52.018;8.570;2022-11-15T10:34:19;13.60;99.90
23237;DHT22;11787;52.018;8.570;2022-11-15T10:36:56;13.60;99.90
23237;DHT22;11787;52.018;8.570;2022-11-15T10:39:23;13.60;99.90
23237;DHT22;11787;52.018;8.570;2022-11-15T10:41:49;13.70;99.90
23237;DHT22;11787;52.018;8.570;2022-11-15T10:44:28;13.70;99.90
23237;DHT22;11787;52.018;8.570;2022-11-15T10:49:27;13.70;99.90
23237;DHT22;11787;52.018;8.570;2022-11-15T10:51:59;13.80;99.90
23237;DHT22;11787;52.018;8.570;2022-11-15T10:54:36;13.80;99.90
23237;DHT22;11787;52.018;8.570;2022-11-15T10:57:12;13.80;99.90
23237;DHT22;11787;52.018;8.570;2022-11-15T10:59:40;13.70;99.90
23237;DHT22;11787;52.018;8.570;2022-11-15T11:02:28;13.80;99.90
23237;DHT22;11787;52.018;8.570;2022-11-15T11:04:54;13.80;99.90
23237;DHT22;11787;52.018;8.570;2022-11-15T11:07:25;13.80;99.90
23237;DHT22;11787;52.018;8.570;2022-11-15T11:10:01;13.90;99.90
23237;DHT22;11787;52.018;8.570;2022-11-15T11:35:14;13.80;99.90
23237;DHT22;11787;52.018;8.570;2022-11-15T11:37:57;13.80;99.90
23237;DHT22;11787;52.018;8.570;2022-11-15T11:47:13;13.90;99.90
23237;DHT22;11787;52.018;8.570;2022-11-15T11:49:59;14.00;99.90
23237;DHT22;11787;52.018;8.570;2022-11-15T11:52:37;14.00;99.90
23237;DHT22;11787;52.018;8.570;2022-11-15T11:55:19;14.00;99.90
23237;DHT22;11787;52.018;8.570;2022-11-15T12:00:26;14.00;99.90
23237;DHT22;11787;52.018;8.570;2022-11-15T12:03:05;14.00;99.90
23237;DHT22;11787;52.018;8.570;2022-11-15T12:05:40;14.00;99.90
23237;DHT22;11787;52.018;8.570;2022-11-15T12:08:35;14.00;99.90
23237;DHT22;11787;52.018;8.570;2022-11-15T12:11:11;14.00;99.90
23237;DHT22;11787;52.018;8.570;2022-11-15T12:13:38;14.10;99.90
23237;DHT22;11787;52.018;8.570;2022-11-15T12:16:16;14.10;99.90
23237;DHT22;11787;52.018;8.570;2022-11-15T12:18:52;14.10;99.90
23237;DHT22;11787;52.018;8.570;2022-11-15T12:21:50;14.10;99.90
23237;DHT22;11787;52.018;8.570;2022-11-15T12:24:20;14.10;99.90
23237;DHT22;11787;52.018;8.570;2022-11-15T12:26:54;14.10;99.90
23237;DHT22;11787;52.018;8.570;2022-11-15T12:29:41;14.10;99.90
23237;DHT22;11787;52.018;8.570;2022-11-15T12:32:29;14.10;99.90
23237;DHT22;11787;52.018;8.570;2022-11-15T12:34:56;14.10;99.90
23237;DHT22;11787;52.018;8.570;2022-11-15T12:45:00;14.60;99.90
23237;DHT22;11787;52.018;8.570;2022-11-15T12:47:26;16.70;99.90
23237;DHT22;11787;52.018;8.570;2022-11-15T12:49:53;18.70;99.90
23237;DHT22;11787;52.018;8.570;2022-11-15T12:52:19;19.30;99.90
23237;DHT22;11787;52.018;8.570;2022-11-15T12:54:59;20.30;99.90
23237;DHT22;11787;52.018;8.570;2022-11-15T12:57:33;20.80;99.90
23237;DHT22;11787;52.018;8.570;2022-11-15T13:00:05;21.30;99.90
23237;DHT22;11787;52.018;8.570;2022-11-15T13:02:47;21.60;99.90
23237;DHT22;11787;52.018;8.570;2022-11-15T13:13:03;20.00;99.90
23237;DHT22;11787;52.018;8.570;2022-11-15T13:18:38;19.30;99.90
23237;DHT22;11787;52.018;8.570;2022-11-15T13:21:18;18.70;99.90
23237;DHT22;11787;52.018;8.570;2022-11-15T13:24:03;17.50;99.90
23237;DHT22;11787;52.018;8.570;2022-11-15T13:26:28;16.40;99.90
23237;DHT22;11787;52.018;8.570;2022-11-15T13:28:54;16.00;99.90
23237;DHT22;11787;52.018;8.570;2022-11-15T13:31:28;15.60;99.90
23237;DHT22;11787;52.018;8.570;2022-11-15T13:33:59;15.40;99.90
23237;DHT22;11787;52.018;8.570;2022-11-15T13:36:32;15.30;99.90
23237;DHT22;11787;52.018;8.570;2022-11-15T13:39:05;15.10;99.90
23237;DHT22;11787;52.018;8.570;2022-11-15T13:41:35;15.10;99.90
23237;DHT22;11787;52.018;8.570;2022-11-15T13:44:22;15.10;99.90
23237;DHT22;11787;52.018;8.570;2022-11-15T13:46:48;15.00;99.90
23237;DHT22;11787;52.018;8.570;2022-11-15T13:49:29;14.90;99.90
23237;DHT22;11787;52.018;8.570;2022-11-15T13:51:55;14.80;99.90
23237;DHT22;11787;52.018;8.570;2022-11-15T13:54:30;14.60;99.90
23237;DHT22;11787;52.018;8.570;2022-11-15T14:02:48;14.50;99.90
23237;DHT22;11787;52.018;8.570;2022-11-15T14:05:19;14.40;99.90
23237;DHT22;11787;52.018;8.570;2022-11-15T14:08:05;14.40;99.90
23237;DHT22;11787;52.018;8.570;2022-11-15T14:10:38;14.40;99.90
23237;DHT22;11787;52.018;8.570;2022-11-15T14:15:51;14.20;99.90
23237;DHT22;11787;52.018;8.570;2022-11-15T14:18:50;14.20;99.90
23237;DHT22;11787;52.018;8.570;2022-11-15T14:21:17;14.10;99.90
23237;DHT22;11787;52.018;8.570;2022-11-15T14:23:42;14.10;99.90
23237;DHT22;11787;52.018;8.570;2022-11-15T14:26:29;14.00;99.90
23237;DHT22;11787;52.018;8.570;2022-11-15T14:28:56;14.00;99.90
23237;DHT22;11787;52.018;8.570;2022-11-15T14:31:22;14.00;99.90
23237;DHT22;11787;52.018;8.570;2022-11-15T14:33:47;13.90;99.90
23237;DHT22;11787;52.018;8.570;2022-11-15T14:36:19;13.90;99.90
23237;DHT22;11787;52.018;8.570;2022-11-15T14:38:46;13.80;99.90
23237;DHT22;11787;52.018;8.570;2022-11-15T14:41:25;13.80;99.90
23237;DHT22;11787;52.018;8.570;2022-11-15T14:43:57;13.70;99.90
23237;DHT22;11787;52.018;8.570;2022-11-15T14:46:23;13.60;99.90
23237;DHT22;11787;52.018;8.570;2022-11-15T14:48:48;13.60;99.90
23237;DHT22;11787;52.018;8.570;2022-11-15T14:51:16;13.50;99.90
23237;DHT22;11787;52.018;8.570;2022-11-15T14:53:43;13.50;99.90
23237;DHT22;11787;52.018;8.570;2022-11-15T14:56:09;13.40;99.90
23237;DHT22;11787;52.018;8.570;2022-11-15T14:58:35;13.40;99.90
23237;DHT22;11787;52.018;8.570;2022-11-15T15:01:05;13.40;99.90
23237;DHT22;11787;52.018;8.570;2022-11-15T15:03:34;13.30;99.90
23237;DHT22;11787;52.018;8.570;2022-11-15T15:06:00;13.20;99.90
23237;DHT22;11787;52.018;8.570;2022-11-15T15:08:25;13.20;99.90
23237;DHT22;11787;52.018;8.570;2022-11-15T15:10:51;13.20;99.90
23237;DHT22;11787;52.018;8.570;2022-11-15T15:13:19;13.10;99.90
23237;DHT22;11787;52.018;8.570;2022-11-15T15:15:46;13.00;99.90
23237;DHT22;11787;52.018;8.570;2022-11-15T15:18:11;13.00;99.90
23237;DHT22;11787;52.018;8.570;2022-11-15T15:20:39;13.00;99.90
23237;DHT22;11787;52.018;8.570;2022-11-15T15:23:16;12.90;99.90
23237;DHT22;11787;52.018;8.570;2022-11-15T15:25:42;12.90;99.90
23237;DHT22;11787;52.018;8.570;2022-11-15T15:28:08;12.90;99.90
23237;DHT22;11787;52.018;8.570;2022-11-15T15:30:34;12.90;99.90
23237;DHT22;11787;52.018;8.570;2022-11-15T15:33:00;12.90;99.90
23237;DHT22;11787;52.018;8.570;2022-11-15T15:35:29;12.90;99.90
23237;DHT22;11787;52.018;8.570;2022-11-15T15:37:56;13.00;99.90
23237;DHT22;11787;52.018;8.570;2022-11-15T15:40:23;12.90;99.90
23237;DHT22;11787;52.018;8.570;2022-11-15T15:42:49;13.00;99.90
23237;DHT22;11787;52.018;8.570;2022-11-15T15:45:16;12.90;99.90
23237;DHT22;11787;52.018;8.570;2022-11-15T15:47:42;13.00;99.90
23237;DHT22;11787;52.018;8.570;2022-11-15T15:50:20;12.90;99.90
23237;DHT22;11787;52.018;8.570;2022-11-15T15:52:45;13.00;99.90
23237;DHT22;11787;52.018;8.570;2022-11-15T15:58:34;13.00;99.90
23237;DHT22;11787;52.018;8.570;2022-11-15T16:00:59;13.00;99.90
23237;DHT22;11787;52.018;8.570;2022-11-15T16:03:25;13.00;99.90
23237;DHT22;11787;52.018;8.570;2022-11-15T16:05:52;13.00;99.90
23237;DHT22;11787;52.018;8.570;2022-11-15T16:11:41;13.00;99.90
23237;DHT22;11787;52.018;8.570;2022-11-15T16:14:07;13.00;99.90
23237;DHT22;11787;52.018;8.570;2022-11-15T16:16:33;13.00;99.90
23237;DHT22;11787;52.018;8.570;2022-11-15T16:22:21;13.00;99.90
23237;DHT22;11787;52.018;8.570;2022-11-15T16:24:47;12.90;99.90
23237;DHT22;11787;52.018;8.570;2022-11-15T16:27:20;12.90;99.90
23237;DHT22;11787;52.018;8.570;2022-11-15T16:33:08;12.90;99.90
23237;DHT22;11787;52.018;8.570;2022-11-15T16:35:34;12.80;99.90
23237;DHT22;11787;52.018;8.570;2022-11-15T16:38:00;12.80;99.90
23237;DHT22;11787;52.018;8.570;2022-11-15T16:43:48;12.80;99.90
23237;DHT22;11787;52.018;8.570;2022-11-15T16:46:22;12.80;99.90
23237;DHT22;11787;52.018;8.570;2022-11-15T16:52:10;12.70;99.90
23237;DHT22;11787;52.018;8.570;2022-11-15T16:54:35;12.70;99.90
23237;DHT22;11787;52.018;8.570;2022-11-15T16:57:01;12.70;99.90
23237;DHT22;11787;52.018;8.570;2022-11-15T16:59:26;12.70;99.90
23237;DHT22;11787;52.018;8.570;2022-11-15T17:01:52;12.60;99.90
23237;DHT22;11787;52.018;8.570;2022-11-15T17:04:18;12.70;99.90
23237;DHT22;11787;52.018;8.570;2022-11-15T17:10:08;12.60;99.90
23237;DHT22;11787;52.018;8.570;2022-11-15T17:12:34;12.60;99.90
23237;DHT22;11787;52.018;8.570;2022-11-15T17:15:00;12.50;99.90
23237;DHT22;11787;52.018;8.570;2022-11-15T17:17:26;12.50;99.90
23237;DHT22;11787;52.018;8.570;2022-11-15T17:19:52;12.50;99.90
23237;DHT22;11787;52.018;8.570;2022-11-15T17:22:19;12.50;99.90
23237;DHT22;11787;52.018;8.570;2022-11-15T17:24:44;12.40;99.90
23237;DHT22;11787;52.018;8.570;2022-11-15T17:27:10;12.50;99.90
23237;DHT22;11787;52.018;8.570;2022-11-15T17:29:36;12.50;99.90
23237;DHT22;11787;52.018;8.570;2022-11-15T17:32:01;12.50;99.90
23237;DHT22;11787;52.018;8.570;2022-11-15T17:38:01;12.50;99.90
23237;DHT22;11787;52.018;8.570;2022-11-15T17:40:27;12.50;99.90
23237;DHT22;11787;52.018;8.570;2022-11-15T17:42:52;12.50;99.90
23237;DHT22;11787;52.018;8.570;2022-11-15T17:45:18;12.50;99.90
23237;DHT22;11787;52.018;8.570;2022-11-15T17:47:43;12.50;99.90
23237;DHT22;11787;52.018;8.570;2022-11-15T17:50:09;12.60;99.90
23237;DHT22;11787;52.018;8.570;2022-11-15T17:56:06;12.60;99.90
23237;DHT22;11787;52.018;8.570;2022-11-15T17:58:32;12.60;99.90
23237;DHT22;11787;52.018;8.570;2022-11-15T18:04:10;12.60;99.90
23237;DHT22;11787;52.018;8.570;2022-11-15T18:06:37;12.60;99.90
23237;DHT22;11787;52.018;8.570;2022-11-15T18:09:03;12.70;99.90
23237;DHT22;11787;52.018;8.570;2022-11-15T18:11:32;12.60;99.90